Time;durP1;ratioP1;P1;durP2;ratioP2;P2;SDS_P1;SDS_P2;PMS_P1;PMS_P2;Temp;Humidity;BMP_temperature;BMP_pressure;BME280_temperature;BME280_humidity;BME280_pressure;Samples;Min_cycle;Max_cycle;Signal;HPM_P1;HPM_P2
2022/05/30 00:02:02;;;;;;;7.53;1.40;;;9.50;99.90;;;;;;5070298;28;20051;-46
2022/05/30 00:04:28;;;;;;;5.72;0.57;;;9.50;99.90;;;;;;5071820;28;20112;-48
2022/05/30 00:06:53;;;;;;;6.82;1.48;;;9.50;99.90;;;;;;5072271;28;20467;-47
2022/05/30 00:09:19;;;;;;;8.93;0.80;;;9.50;99.90;;;;;;5072617;28;20044;-48
2022/05/30 00:11:44;;;;;;;5.93;0.50;;;9.40;99.90;;;;;;5071877;28;20036;-47
2022/05/30 00:14:10;;;;;;;4.97;0.40;;;9.40;99.90;;;;;;5071822;28;20385;-47
2022/05/30 00:16:35;;;;;;;6.53;0.47;;;9.40;99.90;;;;;;5072153;28;20540;-47
2022/05/30 00:19:01;;;;;;;6.60;0.33;;;9.40;99.90;;;;;;5072265;28;20036;-47
2022/05/30 00:21:27;;;;;;;5.40;0.40;;;9.40;99.90;;;;;;5072337;28;20036;-47
2022/05/30 00:23:53;;;;;;;4.47;0.60;;;9.40;99.90;;;;;;5071321;28;20336;-48
2022/05/30 00:26:19;;;;;;;;;;;9.40;99.90;;;;;;5071911;28;20442;-50
2022/05/30 00:28:45;;;;;;;8.93;1.33;;;9.40;99.90;;;;;;5070644;28;19991;-46
2022/05/30 00:31:13;;;;;;;2.92;0.32;;;9.40;99.90;;;;;;5071888;28;20064;-47
2022/05/30 00:33:41;;;;;;;3.78;0.50;;;9.40;99.90;;;;;;5070538;28;20033;-47
2022/05/30 00:36:07;;;;;;;6.70;0.88;;;9.40;99.90;;;;;;5071565;28;20044;-47
2022/05/30 00:38:33;;;;;;;4.20;0.43;;;9.40;99.90;;;;;;5072043;28;20041;-46
2022/05/30 00:40:59;;;;;;;1.50;0.30;;;9.40;99.90;;;;;;5071296;28;20115;-46
2022/05/30 00:43:34;;;;;;;2.47;0.30;;;9.40;99.90;;;;;;5070609;28;20115;-46
2022/05/30 00:46:03;;;;;;;3.42;0.40;;;9.40;99.90;;;;;;5071534;28;20044;-47
2022/05/30 00:48:33;;;;;;;1.83;0.40;;;9.40;99.90;;;;;;5070479;28;20478;-47
2022/05/30 00:51:02;;;;;;;1.15;0.40;;;9.40;99.90;;;;;;5071515;28;20036;-47
2022/05/30 00:53:28;;;;;;;2.17;0.30;;;9.30;99.90;;;;;;5071190;28;20442;-47
2022/05/30 00:55:55;;;;;;;;;;;9.40;99.90;;;;;;5071580;28;20535;-46
2022/05/30 00:58:22;;;;;;;3.40;0.38;;;9.30;99.90;;;;;;5069885;28;19916;-47
2022/05/30 01:00:48;;;;;;;3.35;0.50;;;9.30;99.90;;;;;;5072213;28;20044;-47
2022/05/30 01:08:43;;;;;;;6.13;0.70;;;9.30;99.90;;;;;;5071422;28;20071;-47
2022/05/30 01:11:08;;;;;;;2.80;0.75;;;9.30;99.90;;;;;;5071279;28;20667;-48
2022/05/30 01:13:36;;;;;;;2.13;0.40;;;9.30;99.90;;;;;;5070366;28;20119;-46
2022/05/30 01:16:03;;;;;;;5.03;0.95;;;9.20;99.90;;;;;;5070790;28;20048;-47
2022/05/30 01:18:33;;;;;;;;;;;9.20;99.90;;;;;;5068638;28;20111;-46
2022/05/30 01:21:07;;;;;;;3.47;0.38;;;9.10;99.90;;;;;;5070619;28;19923;-48
2022/05/30 01:23:58;;;;;;;3.10;0.40;;;9.10;99.90;;;;;;5069900;28;20097;-46
2022/05/30 01:26:57;;;;;;;1.90;0.20;;;9.00;99.90;;;;;;5070209;28;20043;-47
2022/05/30 01:29:30;;;;;;;3.00;0.30;;;9.00;99.90;;;;;;5070958;28;20127;-48
2022/05/30 01:31:56;;;;;;;6.00;0.85;;;8.90;99.90;;;;;;5070952;28;20032;-47
2022/05/30 01:34:24;;;;;;;1.63;0.43;;;8.80;99.90;;;;;;5070342;28;20043;-48
2022/05/30 01:36:50;;;;;;;2.35;0.40;;;8.80;99.90;;;;;;5071181;28;20259;-46
2022/05/30 01:39:16;;;;;;;2.70;0.43;;;8.70;99.90;;;;;;5070953;28;20052;-47
2022/05/30 01:41:41;;;;;;;1.58;0.45;;;8.70;99.90;;;;;;5069152;28;20045;-47
2022/05/30 01:44:07;;;;;;;3.17;0.47;;;8.60;99.90;;;;;;5070165;28;20048;-47
2022/05/30 01:46:33;;;;;;;3.00;0.40;;;8.60;99.90;;;;;;5071392;28;20045;-47
2022/05/30 01:48:59;;;;;;;3.97;0.50;;;8.50;99.90;;;;;;5071003;28;20036;-46
2022/05/30 01:51:25;;;;;;;2.80;0.60;;;8.50;99.90;;;;;;5070787;28;20051;-47
2022/05/30 01:53:51;;;;;;;3.15;0.55;;;8.50;99.90;;;;;;5069561;28;20093;-47
2022/05/30 01:56:17;;;;;;;5.47;0.50;;;8.40;99.90;;;;;;5069247;28;20044;-47
2022/05/30 01:58:43;;;;;;;2.30;1.40;;;8.40;99.90;;;;;;5070483;28;20032;-47
2022/05/30 02:01:22;;;;;;;7.45;0.80;;;8.40;99.90;;;;;;5069204;28;20078;-47
2022/05/30 02:03:49;;;;;;;4.35;0.85;;;8.40;99.90;;;;;;5069328;28;20032;-47
2022/05/30 02:06:15;;;;;;;2.33;0.70;;;8.40;99.90;;;;;;5069820;28;20036;-47
2022/05/30 02:08:41;;;;;;;1.00;0.70;;;8.40;99.90;;;;;;5070362;28;20044;-48
2022/05/30 02:11:10;;;;;;;1.93;0.50;;;8.50;99.90;;;;;;5068618;28;20032;-47
2022/05/30 02:13:37;;;;;;;5.35;1.08;;;8.50;99.90;;;;;;5069236;28;20338;-47
2022/05/30 02:18:55;;;;;;;5.35;0.80;;;8.40;99.90;;;;;;5070255;28;20386;-46
2022/05/30 02:21:20;;;;;;;4.13;0.80;;;8.40;99.90;;;;;;5069539;28;20040;-47
2022/05/30 02:23:46;;;;;;;6.33;0.73;;;8.40;99.90;;;;;;5069806;28;20047;-46
2022/05/30 02:26:11;;;;;;;8.60;1.00;;;8.40;99.90;;;;;;5069144;28;20090;-47
2022/05/30 02:28:37;;;;;;;4.47;0.60;;;8.30;99.90;;;;;;5070008;28;20059;-47
2022/05/30 02:31:03;;;;;;;4.80;0.70;;;8.30;99.90;;;;;;5069496;28;20040;-47
2022/05/30 02:38:57;;;;;;;4.00;0.77;;;8.30;99.90;;;;;;5069656;28;20124;-47
2022/05/30 02:41:23;;;;;;;5.57;1.13;;;8.20;99.90;;;;;;5069344;28;20120;-46
2022/05/30 02:43:50;;;;;;;3.60;0.60;;;8.20;99.90;;;;;;5068179;28;20127;-48
2022/05/30 02:46:16;;;;;;;2.55;0.80;;;8.20;99.90;;;;;;5067749;28;20045;-47
2022/05/30 02:48:42;;;;;;;6.80;1.45;;;8.20;99.90;;;;;;5069871;28;20110;-48
2022/05/30 02:51:08;;;;;;;2.60;0.90;;;8.20;99.90;;;;;;5069749;28;20036;-47
2022/05/30 02:53:34;;;;;;;4.40;0.93;;;8.20;99.90;;;;;;5068383;28;20029;-47
2022/05/30 02:56:01;;;;;;;3.33;0.93;;;8.20;99.90;;;;;;5068099;28;20043;-47
2022/05/30 02:58:26;;;;;;;6.05;1.10;;;8.20;99.90;;;;;;5069237;28;20036;-47
2022/05/30 03:00:52;;;;;;;3.08;1.08;;;8.20;99.90;;;;;;5069504;28;20055;-48
2022/05/30 03:03:18;;;;;;;3.67;1.40;;;8.20;99.90;;;;;;5068230;28;20036;-48
2022/05/30 03:05:44;;;;;;;6.40;0.77;;;8.20;99.90;;;;;;5067801;28;20036;-48
2022/05/30 03:08:10;;;;;;;6.13;1.45;;;8.20;99.90;;;;;;5069778;28;20036;-46
2022/05/30 03:10:36;;;;;;;5.13;1.83;;;8.20;99.90;;;;;;5068989;28;20119;-47
2022/05/30 03:13:02;;;;;;;9.73;2.15;;;8.10;99.90;;;;;;5068002;28;20548;-47
2022/05/30 03:15:27;;;;;;;14.75;2.10;;;8.10;99.90;;;;;;5069375;28;20214;-47
2022/05/30 03:17:53;;;;;;;3.37;0.87;;;8.20;99.90;;;;;;5068870;28;20029;-47
2022/05/30 03:20:19;;;;;;;6.33;1.43;;;8.20;99.90;;;;;;5069424;28;20090;-48
2022/05/30 03:22:45;;;;;;;11.30;2.35;;;8.20;99.90;;;;;;5068685;28;20095;-47
2022/05/30 03:25:11;;;;;;;;;;;8.20;99.90;;;;;;5067606;28;20048;-47
2022/05/30 03:27:37;;;;;;;4.28;1.35;;;8.20;99.90;;;;;;5049753;28;19921;-48
2022/05/30 03:30:03;;;;;;;7.28;1.88;;;8.20;99.90;;;;;;5069819;28;20041;-48
2022/05/30 03:32:29;;;;;;;6.18;1.85;;;8.20;99.90;;;;;;5069775;28;20413;-47
2022/05/30 03:34:54;;;;;;;8.13;1.77;;;8.20;99.90;;;;;;5068600;28;20036;-47
2022/05/30 03:37:20;;;;;;;6.43;1.83;;;8.30;99.90;;;;;;5069659;28;20621;-47
2022/05/30 03:39:45;;;;;;;7.77;1.13;;;8.20;99.90;;;;;;5069544;28;20383;-47
2022/05/30 03:42:14;;;;;;;6.53;2.10;;;8.30;99.90;;;;;;5068803;28;20046;-47
2022/05/30 03:44:41;;;;;;;4.68;1.63;;;8.20;99.90;;;;;;5068063;28;20051;-47
2022/05/30 03:47:06;;;;;;;;;;;8.30;99.90;;;;;;5069935;28;20041;-47
2022/05/30 03:49:32;;;;;;;6.25;1.85;;;8.20;99.90;;;;;;5069404;28;19924;-48
2022/05/30 03:51:58;;;;;;;7.10;2.17;;;8.20;99.90;;;;;;5069203;28;20062;-48
2022/05/30 03:54:24;;;;;;;5.40;1.98;;;8.20;99.90;;;;;;5067676;28;20194;-47
2022/05/30 03:56:50;;;;;;;9.07;1.98;;;8.30;99.90;;;;;;5068761;28;20071;-48
2022/05/30 03:59:15;;;;;;;9.53;3.23;;;8.30;99.90;;;;;;5069362;28;20044;-47
2022/05/30 04:01:42;;;;;;;4.67;2.00;;;8.30;99.90;;;;;;5068150;28;20200;-48
2022/05/30 04:04:07;;;;;;;11.15;2.70;;;8.30;99.90;;;;;;5068383;28;20055;-47
2022/05/30 04:06:33;;;;;;;8.00;2.40;;;8.30;99.90;;;;;;5068125;28;20048;-47
2022/05/30 04:08:58;;;;;;;6.95;1.60;;;8.30;99.90;;;;;;5068793;28;20051;-47
2022/05/30 04:11:24;;;;;;;12.27;3.13;;;8.30;99.90;;;;;;5068883;28;20052;-48
2022/05/30 04:13:50;;;;;;;6.77;2.37;;;8.20;99.90;;;;;;5068467;28;20047;-47
2022/05/30 04:16:16;;;;;;;6.93;2.47;;;8.20;99.90;;;;;;5070870;28;20279;-47
2022/05/30 04:18:42;;;;;;;9.63;3.17;;;8.20;99.90;;;;;;5072276;28;20124;-47
2022/05/30 04:21:09;;;;;;;7.88;2.85;;;8.20;99.90;;;;;;5071690;28;20474;-47
2022/05/30 04:23:36;;;;;;;8.20;2.38;;;8.20;99.90;;;;;;5070454;28;20154;-47
2022/05/30 04:26:05;;;;;;;;;;;8.20;99.90;;;;;;5071684;28;20545;-48
2022/05/30 04:28:31;;;;;;;5.05;2.90;;;8.20;99.90;;;;;;5072037;28;19923;-47
2022/05/30 04:30:56;;;;;;;6.50;2.10;;;8.20;99.90;;;;;;5072107;28;20037;-47
2022/05/30 04:33:22;;;;;;;8.20;3.70;;;8.10;99.90;;;;;;5071330;28;20704;-47
2022/05/30 04:35:47;;;;;;;12.73;2.60;;;8.20;99.90;;;;;;5071314;28;20043;-47
2022/05/30 04:38:13;;;;;;;7.72;2.85;;;8.20;99.90;;;;;;5071889;28;20043;-48
2022/05/30 04:40:38;;;;;;;9.40;2.10;;;8.20;99.90;;;;;;5071673;28;20045;-47
2022/05/30 04:43:04;;;;;;;7.10;2.13;;;8.20;99.90;;;;;;5070943;28;20037;-48
2022/05/30 04:45:30;;;;;;;8.93;3.13;;;8.20;99.90;;;;;;5071722;28;20044;-49
2022/05/30 04:47:56;;;;;;;3.58;1.55;;;8.20;99.90;;;;;;5071582;28;20115;-47
2022/05/30 04:50:21;;;;;;;8.97;3.00;;;8.30;99.90;;;;;;5071471;28;20134;-46
2022/05/30 04:52:47;;;;;;;8.27;2.10;;;8.30;99.90;;;;;;5070520;28;20056;-48
2022/05/30 04:55:15;;;;;;;8.00;2.40;;;8.20;99.90;;;;;;5071033;28;20093;-47
2022/05/30 04:57:46;;;;;;;5.13;1.80;;;8.30;99.90;;;;;;5071685;28;20470;-48
2022/05/30 05:00:14;;;;;;;4.85;1.65;;;8.30;99.90;;;;;;5071757;28;20129;-47
2022/05/30 05:02:39;;;;;;;6.43;1.95;;;8.40;99.90;;;;;;5086719;28;20036;-47
2022/05/30 05:05:06;;;;;;;6.72;1.85;;;8.40;99.90;;;;;;5070777;28;20547;-47
2022/05/30 05:07:48;;;;;;;7.78;2.38;;;8.40;99.90;;;;;;5070512;28;20040;-47
2022/05/30 05:10:33;;;;;;;2.97;1.90;;;8.40;99.90;;;;;;5069964;28;20045;-47
2022/05/30 05:12:59;;;;;;;4.90;2.17;;;8.40;99.90;;;;;;5070006;28;20029;-47
2022/05/30 05:15:24;;;;;;;11.00;1.77;;;8.40;99.90;;;;;;5069772;28;20289;-47
2022/05/30 05:17:50;;;;;;;4.80;1.73;;;8.40;99.90;;;;;;5069491;28;20036;-45
2022/05/30 05:20:15;;;;;;;10.07;1.97;;;8.40;99.90;;;;;;5071328;28;20045;-47
2022/05/30 05:22:41;;;;;;;8.43;1.63;;;8.40;99.90;;;;;;5070470;28;20036;-48
2022/05/30 05:25:07;;;;;;;4.50;1.63;;;8.40;99.90;;;;;;5070249;28;20064;-47
2022/05/30 05:27:33;;;;;;;;;;;8.50;99.90;;;;;;5072086;28;20040;-47
2022/05/30 05:29:58;;;;;;;6.15;1.70;;;8.50;99.90;;;;;;5071659;28;19921;-47
2022/05/30 05:32:24;;;;;;;5.93;1.87;;;8.50;99.90;;;;;;5054284;28;20033;-47
2022/05/30 05:34:50;;;;;;;5.40;2.33;;;8.60;99.90;;;;;;5050804;28;20051;-47
2022/05/30 05:37:19;;;;;;;5.22;2.08;;;8.60;99.90;;;;;;5051654;28;20037;-48
2022/05/30 05:39:47;;;;;;;5.55;2.10;;;8.70;99.90;;;;;;5051359;28;20082;-47
2022/05/30 05:42:13;;;;;;;4.70;2.47;;;8.70;99.90;;;;;;5050953;28;20044;-47
2022/05/30 05:44:40;;;;;;;6.05;2.28;;;8.80;99.90;;;;;;5065138;28;20452;-48
2022/05/30 05:47:06;;;;;;;11.82;2.35;;;8.80;99.90;;;;;;5070571;28;20418;-47
2022/05/30 05:49:32;;;;;;;7.82;1.90;;;8.80;99.90;;;;;;5069339;28;20047;-47
2022/05/30 05:51:57;;;;;;;2.77;1.40;;;8.80;99.90;;;;;;5050776;28;20041;-48
2022/05/30 05:54:25;;;;;;;4.40;1.77;;;8.90;99.90;;;;;;5048982;28;20041;-48
2022/05/30 05:56:51;;;;;;;6.57;2.58;;;9.00;99.90;;;;;;5050375;28;20486;-48
2022/05/30 05:59:17;;;;;;;6.93;2.63;;;9.10;99.90;;;;;;5060783;28;20085;-48
2022/05/30 06:01:43;;;;;;;7.28;2.22;;;9.10;99.90;;;;;;5067289;28;20090;-47
2022/05/30 06:04:10;;;;;;;6.13;2.03;;;9.20;99.90;;;;;;5069692;28;20164;-48
2022/05/30 06:06:36;;;;;;;3.55;1.92;;;9.20;99.90;;;;;;5069410;28;20043;-47
2022/05/30 06:09:04;;;;;;;4.60;2.67;;;9.30;99.90;;;;;;5070041;28;20037;-48
2022/05/30 06:11:31;;;;;;;11.05;2.58;;;9.40;99.90;;;;;;5070091;28;20048;-47
2022/05/30 06:13:57;;;;;;;4.95;1.70;;;9.50;99.90;;;;;;5069160;28;20409;-47
2022/05/30 06:16:26;;;;;;;14.73;2.53;;;9.60;99.90;;;;;;5070035;28;20592;-47
2022/05/30 06:18:53;;;;;;;4.32;1.17;;;9.70;99.90;;;;;;5070369;28;20037;-47
2022/05/30 06:21:20;;;;;;;3.30;1.75;;;9.80;99.90;;;;;;5068949;28;20126;-47
2022/05/30 06:23:46;;;;;;;;;;;9.90;99.90;;;;;;5069220;28;20036;-47
2022/05/30 06:26:13;;;;;;;10.18;1.08;;;9.90;99.90;;;;;;5069584;28;19917;-47
2022/05/30 06:28:40;;;;;;;6.47;1.05;;;10.00;99.90;;;;;;5058325;28;20074;-47
2022/05/30 06:31:08;;;;;;;5.72;1.63;;;10.10;99.90;;;;;;5070160;28;20040;-47
2022/05/30 06:33:34;;;;;;;4.57;1.25;;;10.20;99.90;;;;;;5063912;28;20032;-46
2022/05/30 06:35:59;;;;;;;6.03;1.00;;;10.20;99.90;;;;;;5065595;28;20587;-47
2022/05/30 06:38:25;;;;;;;2.60;1.13;;;10.20;99.90;;;;;;5061694;28;20282;-48
2022/05/30 06:40:50;;;;;;;3.63;1.10;;;10.40;99.90;;;;;;5064732;28;20514;-47
2022/05/30 06:43:16;;;;;;;1.87;1.10;;;10.50;99.90;;;;;;5064334;28;20046;-48
2022/05/30 06:45:47;;;;;;;5.03;1.23;;;10.60;99.90;;;;;;5064792;28;20115;-47
2022/05/30 06:48:13;;;;;;;4.97;1.65;;;10.70;99.90;;;;;;5065174;28;20487;-48
2022/05/30 06:50:38;;;;;;;5.85;1.88;;;10.80;99.90;;;;;;5065136;28;20040;-47
2022/05/30 06:53:04;;;;;;;5.17;1.30;;;10.80;99.90;;;;;;5063954;28;20055;-47
2022/05/30 06:55:31;;;;;;;3.88;0.57;;;10.90;99.90;;;;;;5065264;28;20134;-46
2022/05/30 06:58:12;;;;;;;6.03;0.88;;;11.00;99.90;;;;;;5064741;28;20043;-47
2022/05/30 07:00:37;;;;;;;8.45;1.10;;;11.00;99.90;;;;;;5063095;28;20079;-46
2022/05/30 07:03:03;;;;;;;8.30;1.00;;;11.20;99.90;;;;;;5064554;28;20076;-47
2022/05/30 07:05:29;;;;;;;1.83;0.43;;;11.30;99.90;;;;;;5063169;28;20043;-47
2022/05/30 07:07:56;;;;;;;3.27;0.93;;;11.40;99.90;;;;;;5059888;28;20139;-46
2022/05/30 07:10:23;;;;;;;3.05;0.77;;;11.50;99.90;;;;;;5078560;28;20032;-48
2022/05/30 07:12:49;;;;;;;2.00;0.40;;;11.60;99.90;;;;;;5080685;28;20643;-47
2022/05/30 07:15:15;;;;;;;3.60;0.70;;;11.60;99.90;;;;;;5074557;28;20051;-47
2022/05/30 07:17:41;;;;;;;;;;;11.60;99.90;;;;;;5080212;28;20051;-46
2022/05/30 07:20:07;;;;;;;1.02;0.20;;;11.70;99.90;;;;;;5077732;28;19920;-47
2022/05/30 07:22:33;;;;;;;2.75;0.30;;;11.70;99.90;;;;;;5077787;28;20055;-48
2022/05/30 07:24:59;;;;;;;2.60;0.38;;;11.70;99.90;;;;;;5075482;28;20420;-48
2022/05/30 07:27:24;;;;;;;2.87;0.47;;;11.80;99.90;;;;;;5077456;28;20037;-47
2022/05/30 07:29:50;;;;;;;1.58;0.30;;;11.80;99.90;;;;;;5077542;28;20028;-47
2022/05/30 07:32:16;;;;;;;2.20;0.27;;;11.90;99.90;;;;;;5075507;28;20505;-48
2022/05/30 07:34:42;;;;;;;1.05;0.47;;;11.90;99.90;;;;;;5073918;28;20282;-48
2022/05/30 07:37:08;;;;;;;4.03;0.70;;;11.90;99.90;;;;;;5066162;28;20028;-48
2022/05/30 07:39:39;;;;;;;3.50;0.50;;;11.90;99.90;;;;;;5069450;28;20878;-47
2022/05/30 07:42:05;;;;;;;1.90;0.30;;;11.90;99.90;;;;;;5078256;28;20036;-48
2022/05/30 07:44:31;;;;;;;2.95;0.22;;;11.90;99.90;;;;;;5076262;28;20050;-47
2022/05/30 07:46:57;;;;;;;2.78;0.30;;;11.80;99.90;;;;;;5074028;28;20040;-47
2022/05/30 07:49:23;;;;;;;4.70;0.77;;;11.90;99.90;;;;;;5081804;28;20039;-47
2022/05/30 07:51:49;;;;;;;2.70;0.40;;;11.90;99.90;;;;;;5078022;28;20118;-48
2022/05/30 07:54:15;;;;;;;4.20;0.70;;;11.90;99.90;;;;;;5086014;28;20120;-47
2022/05/30 07:56:41;;;;;;;2.05;0.40;;;12.00;99.90;;;;;;5083277;28;20478;-46
2022/05/30 07:59:06;;;;;;;0.98;0.20;;;12.10;99.90;;;;;;5081952;28;20558;-47
2022/05/30 08:01:33;;;;;;;1.33;0.40;;;12.10;99.90;;;;;;5084929;28;20059;-47
2022/05/30 08:03:59;;;;;;;2.55;0.20;;;12.20;99.90;;;;;;5071502;28;20301;-47
2022/05/30 08:06:27;;;;;;;0.40;0.20;;;12.40;99.90;;;;;;5078645;28;20041;-46
2022/05/30 08:08:53;;;;;;;2.38;0.20;;;12.50;99.90;;;;;;5082624;28;20287;-47
2022/05/30 08:11:19;;;;;;;;;;;12.50;99.90;;;;;;5080935;28;20070;-46
2022/05/30 08:13:45;;;;;;;2.05;0.30;;;12.60;99.90;;;;;;5080486;28;19920;-47
2022/05/30 08:16:16;;;;;;;0.60;0.35;;;12.60;99.90;;;;;;5082867;28;20036;-46
2022/05/30 08:18:42;;;;;;;1.17;0.10;;;12.60;99.90;;;;;;5079016;28;20105;-46
2022/05/30 08:21:08;;;;;;;0.70;0.20;;;12.70;99.90;;;;;;5071296;28;20165;-47
2022/05/30 08:23:33;;;;;;;1.10;0.23;;;12.80;99.90;;;;;;5081340;28;20040;-47
2022/05/30 08:25:59;;;;;;;2.05;0.22;;;12.90;99.90;;;;;;5080139;28;20309;-47
2022/05/30 08:28:25;;;;;;;1.80;0.10;;;12.90;99.90;;;;;;5074477;28;20033;-47
2022/05/30 08:30:51;;;;;;;3.03;0.20;;;12.90;99.90;;;;;;5077805;28;20119;-47
2022/05/30 08:33:19;;;;;;;;;;;12.90;99.90;;;;;;5077692;28;20024;-47
2022/05/30 08:35:45;;;;;;;0.25;0.10;;;12.90;99.90;;;;;;5083733;28;19916;-47
2022/05/30 08:38:12;;;;;;;0.60;0.10;;;12.90;99.90;;;;;;5078727;28;20043;-47
2022/05/30 08:43:37;;;;;;;1.48;0.10;;;12.80;99.90;;;;;;5043044;28;20100;-48
2022/05/30 08:46:24;;;;;;;0.38;0.10;;;12.80;99.90;;;;;;5079308;28;20051;-49
2022/05/30 08:49:06;;;;;;;2.42;0.28;;;12.80;99.90;;;;;;5066395;28;20115;-46
2022/05/30 08:51:52;;;;;;;0.75;0.20;;;12.90;99.90;;;;;;5060359;28;20136;-47
2022/05/30 08:54:45;;;;;;;3.45;0.30;;;13.00;99.90;;;;;;5075962;28;20505;-46
2022/05/30 08:57:30;;;;;;;0.95;0.20;;;13.00;99.90;;;;;;5065102;28;20052;-49
2022/05/30 09:00:08;;;;;;;3.65;0.22;;;12.90;99.90;;;;;;5083459;28;20044;-47
2022/05/30 09:02:43;;;;;;;1.83;0.30;;;12.80;99.90;;;;;;5069764;28;20048;-46
2022/05/30 09:05:35;;;;;;;3.00;0.43;;;12.70;99.90;;;;;;5084923;28;20040;-47
2022/05/30 09:08:08;;;;;;;1.25;0.10;;;12.60;99.90;;;;;;5076862;28;20112;-47
2022/05/30 09:10:51;;;;;;;2.83;0.25;;;12.50;99.90;;;;;;5085835;28;20411;-46
2022/05/30 09:13:44;;;;;;;4.07;0.20;;;12.50;99.90;;;;;;5083095;28;20043;-48
2022/05/30 09:16:16;;;;;;;0.40;0.20;;;12.40;99.90;;;;;;5080873;28;20138;-47
2022/05/30 09:18:48;;;;;;;2.05;0.20;;;12.40;99.90;;;;;;5085514;28;20040;-47
2022/05/30 09:21:15;;;;;;;3.20;0.50;;;12.40;99.90;;;;;;5082810;28;20487;-46
2022/05/30 09:23:41;;;;;;;1.70;0.40;;;12.50;99.90;;;;;;5085042;28;20123;-47
2022/05/30 09:26:12;;;;;;;1.10;0.20;;;12.50;99.90;;;;;;5083861;28;20070;-47
2022/05/30 09:28:41;;;;;;;3.90;0.25;;;12.50;99.90;;;;;;5085381;28;20040;-46
2022/05/30 09:31:40;;;;;;;0.60;0.10;;;12.50;99.90;;;;;;5082133;28;20517;-46
2022/05/30 09:34:37;;;;;;;1.23;0.43;;;12.60;99.90;;;;;;5079962;28;20097;-47
2022/05/30 09:37:03;;;;;;;3.78;0.25;;;12.70;99.90;;;;;;5084155;28;20097;-46
2022/05/30 09:39:42;;;;;;;2.83;0.40;;;12.70;99.90;;;;;;5080243;28;20045;-46
2022/05/30 09:42:23;;;;;;;0.40;0.10;;;12.70;99.90;;;;;;5079270;28;20040;-46
2022/05/30 09:44:52;;;;;;;1.70;0.40;;;12.80;99.90;;;;;;5077132;28;20031;-46
2022/05/30 09:47:20;;;;;;;0.55;0.13;;;12.80;99.90;;;;;;5085840;28;20570;-46
2022/05/30 09:49:51;;;;;;;1.80;0.10;;;12.90;99.90;;;;;;5073762;28;20199;-47
2022/05/30 09:52:22;;;;;;;1.88;0.40;;;13.00;99.90;;;;;;5063840;28;20028;-48
2022/05/30 09:54:48;;;;;;;0.30;0.10;;;13.00;99.90;;;;;;5071416;28;20047;-46
2022/05/30 09:57:22;;;;;;;0.20;0.10;;;13.10;99.90;;;;;;5068134;28;20036;-46
2022/05/30 09:59:50;;;;;;;1.75;0.10;;;13.10;99.90;;;;;;5077175;28;20043;-47
2022/05/30 10:02:23;;;;;;;0.90;0.20;;;13.10;99.90;;;;;;5073412;28;20049;-47
2022/05/30 10:05:00;;;;;;;0.50;0.10;;;13.10;99.90;;;;;;5073188;28;20083;-47
2022/05/30 10:07:26;;;;;;;0.85;0.30;;;13.00;99.90;;;;;;5076289;28;20043;-46
2022/05/30 10:10:00;;;;;;;2.20;0.10;;;13.00;99.90;;;;;;5065762;28;20045;-46
2022/05/30 10:12:45;;;;;;;1.38;0.10;;;13.00;99.90;;;;;;5064731;28;20294;-47
2022/05/30 10:15:34;;;;;;;0.25;0.10;;;12.90;99.90;;;;;;5064406;28;20165;-47
2022/05/30 10:18:17;;;;;;;0.28;0.10;;;12.90;99.90;;;;;;5064867;28;20032;-46
2022/05/30 10:21:03;;;;;;;1.45;0.20;;;12.90;99.90;;;;;;5064029;28;20040;-46
2022/05/30 10:29:41;;;;;;;0.70;0.10;;;13.00;99.90;;;;;;5064465;28;20593;-47
2022/05/30 10:32:37;;;;;;;1.90;0.20;;;13.00;99.90;;;;;;5066091;28;20044;-46
2022/05/30 10:35:19;;;;;;;2.28;0.30;;;13.10;99.90;;;;;;5064766;28;20051;-47
2022/05/30 10:38:11;;;;;;;0.43;0.10;;;13.10;99.90;;;;;;5066401;28;20050;-46
2022/05/30 10:40:57;;;;;;;1.23;0.10;;;13.20;99.90;;;;;;5065766;28;20040;-46
2022/05/30 10:43:42;;;;;;;1.40;0.10;;;13.20;99.90;;;;;;5065312;28;20098;-46
2022/05/30 10:46:13;;;;;;;1.85;0.38;;;13.30;99.90;;;;;;5063824;28;20040;-48
2022/05/30 10:49:00;;;;;;;1.55;0.20;;;13.40;99.90;;;;;;5064248;28;20052;-47
2022/05/30 10:51:30;;;;;;;2.72;0.10;;;13.50;99.90;;;;;;5066136;28;20120;-47
2022/05/30 10:54:24;;;;;;;1.45;0.10;;;13.60;99.90;;;;;;5063141;28;20055;-46
2022/05/30 10:56:52;;;;;;;1.52;0.10;;;13.70;99.90;;;;;;5063657;28;20047;-47
2022/05/30 10:59:38;;;;;;;0.70;0.10;;;13.70;99.90;;;;;;5065897;28;20044;-46
2022/05/30 11:02:28;;;;;;;3.37;0.10;;;13.80;99.90;;;;;;5065597;28;20106;-46
2022/05/30 11:05:15;;;;;;;0.30;0.10;;;13.80;99.90;;;;;;5034447;28;20057;-46
2022/05/30 11:07:47;;;;;;;3.20;0.15;;;13.90;99.80;;;;;;5061484;28;20459;-46
2022/05/30 11:10:33;;;;;;;0.85;0.10;;;14.00;99.90;;;;;;5065614;28;20044;-47
2022/05/30 11:13:28;;;;;;;0.63;0.17;;;14.10;99.90;;;;;;5063020;28;20072;-47
2022/05/30 11:16:08;;;;;;;1.85;0.20;;;14.10;99.90;;;;;;5063847;28;20041;-46
2022/05/30 11:18:42;;;;;;;1.20;0.10;;;14.20;99.90;;;;;;5063862;28;20323;-46
2022/05/30 11:21:36;;;;;;;0.38;0.20;;;14.10;99.90;;;;;;5064713;28;20040;-47
2022/05/30 11:24:04;;;;;;;0.38;0.10;;;14.10;99.90;;;;;;5064363;28;20056;-47
2022/05/30 11:26:45;;;;;;;0.75;0.17;;;14.10;99.90;;;;;;5060557;28;20044;-48
2022/05/30 11:30:00;;;;;;;0.90;0.20;;;14.00;99.90;;;;;;5064634;28;20502;-47
2022/05/30 11:33:11;;;;;;;0.73;0.20;;;13.90;99.90;;;;;;5059717;28;20051;-46
2022/05/30 11:35:50;;;;;;;0.90;0.30;;;14.00;99.90;;;;;;5062720;28;20068;-46
2022/05/30 11:38:45;;;;;;;3.88;0.50;;;13.90;99.90;;;;;;5058450;28;20075;-47
2022/05/30 11:41:36;;;;;;;2.33;0.20;;;13.90;99.90;;;;;;5078751;28;20044;-46
2022/05/30 11:44:20;;;;;;;1.50;0.22;;;13.80;99.90;;;;;;5077367;28;20287;-47
2022/05/30 11:47:14;;;;;;;1.30;0.20;;;13.80;99.90;;;;;;5073991;28;20044;-47
2022/05/30 11:49:52;;;;;;;18.38;1.65;;;13.80;99.90;;;;;;5079162;28;20091;-47
2022/05/30 11:52:30;;;;;;;6.55;0.57;;;13.80;99.90;;;;;;5083166;28;20435;-47
2022/05/30 11:55:11;;;;;;;0.80;0.20;;;13.80;99.90;;;;;;5078322;28;20781;-46
2022/05/30 11:57:59;;;;;;;2.28;0.47;;;13.90;99.90;;;;;;5077330;28;20090;-46
2022/05/30 12:00:32;;;;;;;1.10;0.20;;;13.90;99.70;;;;;;5073541;28;20049;-47
2022/05/30 12:03:26;;;;;;;1.30;0.40;;;13.90;98.70;;;;;;5073764;28;20036;-46
2022/05/30 12:06:03;;;;;;;1.05;0.30;;;13.90;99.20;;;;;;5078253;28;20079;-48
2022/05/30 12:08:49;;;;;;;1.08;0.57;;;14.00;99.50;;;;;;5074683;28;20028;-53
2022/05/30 12:11:14;;;;;;;1.30;0.30;;;14.00;99.10;;;;;;5086233;28;20567;-47
2022/05/30 12:14:05;;;;;;;0.60;0.20;;;14.10;98.60;;;;;;5086310;28;20067;-47
2022/05/30 12:17:08;;;;;;;2.22;0.20;;;14.10;99.30;;;;;;5078385;28;20043;-47
2022/05/30 12:25:52;;;;;;;0.57;0.30;;;14.20;99.40;;;;;;5077209;28;20044;-47
2022/05/30 12:28:27;;;;;;;1.63;0.20;;;14.30;99.60;;;;;;5086006;28;20524;-47
2022/05/30 12:31:01;;;;;;;1.35;0.20;;;14.30;99.90;;;;;;5083359;28;20501;-47
2022/05/30 12:33:30;;;;;;;0.40;0.25;;;14.40;99.20;;;;;;5083578;28;20028;-49
2022/05/30 12:36:10;;;;;;;1.38;0.22;;;14.40;99.10;;;;;;5072226;28;20039;-46
2022/05/30 12:38:50;;;;;;;2.00;0.20;;;14.40;98.90;;;;;;5082313;28;20538;-48
2022/05/30 12:41:35;;;;;;;2.88;0.20;;;14.40;99.10;;;;;;5081559;28;20076;-47
2022/05/30 12:44:01;;;;;;;1.08;0.10;;;14.40;98.20;;;;;;5082243;28;20033;-47
2022/05/30 12:46:47;;;;;;;0.45;0.10;;;14.40;98.70;;;;;;5082642;28;20046;-47
2022/05/30 12:49:30;;;;;;;0.88;0.25;;;14.40;98.50;;;;;;5079169;28;20048;-47
2022/05/30 12:52:17;;;;;;;0.40;0.20;;;14.40;98.10;;;;;;5083980;28;20036;-47
2022/05/30 12:54:44;;;;;;;0.30;0.10;;;14.40;98.20;;;;;;5079440;28;20093;-47
2022/05/30 12:57:31;;;;;;;1.05;0.10;;;14.40;98.20;;;;;;5085356;28;20059;-47
2022/05/30 13:00:04;;;;;;;2.47;0.17;;;14.40;98.20;;;;;;5078780;28;20710;-47
2022/05/30 13:02:51;;;;;;;2.30;0.30;;;14.30;98.90;;;;;;5078614;28;20055;-47
2022/05/30 13:05:30;;;;;;;2.30;0.40;;;14.20;98.70;;;;;;5081503;28;20062;-47
2022/05/30 13:07:55;;;;;;;4.15;0.57;;;14.10;99.10;;;;;;5082229;28;20404;-46
2022/05/30 13:10:21;;;;;;;2.80;0.20;;;14.00;99.40;;;;;;5077205;28;20128;-47
2022/05/30 13:13:18;;;;;;;2.33;0.20;;;14.00;99.00;;;;;;5082377;28;20571;-47
2022/05/30 13:15:50;;;;;;;4.43;0.28;;;13.90;99.40;;;;;;5078168;28;20300;-48
2022/05/30 13:18:20;;;;;;;4.47;0.45;;;13.80;99.70;;;;;;5083014;28;20101;-48
2022/05/30 13:20:50;;;;;;;3.75;0.52;;;13.70;99.90;;;;;;5077619;28;20379;-47
2022/05/30 13:23:26;;;;;;;2.35;0.20;;;13.60;99.90;;;;;;5084569;28;20032;-48
2022/05/30 13:25:51;;;;;;;0.93;0.20;;;13.50;99.90;;;;;;5077594;28;20037;-47
2022/05/30 13:28:28;;;;;;;2.63;0.65;;;13.50;99.90;;;;;;5066769;28;20408;-47
2022/05/30 13:30:56;;;;;;;2.95;0.20;;;13.40;99.90;;;;;;5078960;28;20197;-46
2022/05/30 13:33:51;;;;;;;0.85;0.20;;;13.30;99.90;;;;;;5075002;28;20408;-47
2022/05/30 13:36:27;;;;;;;0.63;0.17;;;13.30;99.90;;;;;;5082280;28;20028;-46
2022/05/30 13:38:54;;;;;;;2.45;0.50;;;13.20;99.90;;;;;;5080877;28;20031;-47
2022/05/30 13:41:22;;;;;;;1.92;0.20;;;13.20;99.90;;;;;;5074012;28;20544;-46
2022/05/30 13:43:57;;;;;;;0.75;0.20;;;13.20;99.90;;;;;;5071823;28;20082;-47
2022/05/30 13:46:32;;;;;;;1.00;0.20;;;13.20;99.90;;;;;;5068683;28;20044;-46